sensor_id;sensor_type;location;lat;lon;timestamp;pressure;altitude;pressure_sealevel;temperature;humidity
20077;BME280;12348;42.710;23.378;2023-01-30T00:00:34;95429.63;;;-0.35;100.00
20077;BME280;12348;42.710;23.378;2023-01-30T00:03:02;95440.47;;;-0.43;100.00
20077;BME280;12348;42.710;23.378;2023-01-30T00:05:29;95436.63;;;-0.47;100.00
20077;BME280;12348;42.710;23.378;2023-01-30T00:07:56;95420.38;;;-0.51;100.00
20077;BME280;12348;42.710;23.378;2023-01-30T00:10:23;95421.16;;;-0.50;100.00
20077;BME280;12348;42.710;23.378;2023-01-30T00:12:49;95426.25;;;-0.48;100.00
20077;BME280;12348;42.710;23.378;2023-01-30T00:15:17;95419.75;;;-0.53;100.00
20077;BME280;12348;42.710;23.378;2023-01-30T00:17:43;95424.84;;;-0.51;100.00
20077;BME280;12348;42.710;23.378;2023-01-30T00:20:12;95425.66;;;-0.51;100.00
20077;BME280;12348;42.710;23.378;2023-01-30T00:22:38;95425.66;;;-0.51;100.00
20077;BME280;12348;42.710;23.378;2023-01-30T00:25:06;95425.28;;;-0.54;100.00
20077;BME280;12348;42.710;23.378;2023-01-30T00:27:33;95414.72;;;-0.61;100.00
20077;BME280;12348;42.710;23.378;2023-01-30T00:29:59;95420.25;;;-0.62;100.00
20077;BME280;12348;42.710;23.378;2023-01-30T00:32:28;95425.38;;;-0.74;100.00
20077;BME280;12348;42.710;23.378;2023-01-30T00:34:55;95422.94;;;-0.76;100.00
20077;BME280;12348;42.710;23.378;2023-01-30T00:37:23;95415.22;;;-0.77;100.00
20077;BME280;12348;42.710;23.378;2023-01-30T00:39:50;95413.78;;;-0.73;100.00
20077;BME280;12348;42.710;23.378;2023-01-30T00:42:17;95405.47;;;-0.77;100.00
20077;BME280;12348;42.710;23.378;2023-01-30T00:45:02;95395.91;;;-0.78;100.00
20077;BME280;12348;42.710;23.378;2023-01-30T00:47:48;95414.81;;;-0.74;100.00
20077;BME280;12348;42.710;23.378;2023-01-30T00:50:15;95409.31;;;-0.73;100.00
20077;BME280;12348;42.710;23.378;2023-01-30T00:52:43;95417.66;;;-0.76;100.00
20077;BME280;12348;42.710;23.378;2023-01-30T00:55:09;95406.91;;;-0.81;100.00
20077;BME280;12348;42.710;23.378;2023-01-30T00:57:36;95412.78;;;-0.79;100.00
20077;BME280;12348;42.710;23.378;2023-01-30T01:00:04;95411.91;;;-0.66;100.00
20077;BME280;12348;42.710;23.378;2023-01-30T01:02:32;95408.25;;;-0.65;100.00
20077;BME280;12348;42.710;23.378;2023-01-30T01:04:58;95412.97;;;-0.74;100.00
20077;BME280;12348;42.710;23.378;2023-01-30T01:07:25;95398.16;;;-0.75;100.00
20077;BME280;12348;42.710;23.378;2023-01-30T01:09:53;95405.88;;;-0.80;100.00
20077;BME280;12348;42.710;23.378;2023-01-30T01:12:20;95408.75;;;-0.81;100.00
20077;BME280;12348;42.710;23.378;2023-01-30T01:14:47;95406.31;;;-0.83;100.00
20077;BME280;12348;42.710;23.378;2023-01-30T01:17:15;95401.91;;;-0.95;100.00
20077;BME280;12348;42.710;23.378;2023-01-30T01:19:41;95402.06;;;-0.90;100.00
20077;BME280;12348;42.710;23.378;2023-01-30T01:22:09;95398.19;;;-0.88;100.00
20077;BME280;12348;42.710;23.378;2023-01-30T01:24:36;95391.31;;;-0.89;100.00
20077;BME280;12348;42.710;23.378;2023-01-30T01:27:05;95393.75;;;-0.94;100.00
20077;BME280;12348;42.710;23.378;2023-01-30T01:29:31;95392.13;;;-0.88;100.00
20077;BME280;12348;42.710;23.378;2023-01-30T01:31:58;95397.97;;;-0.86;100.00
20077;BME280;12348;42.710;23.378;2023-01-30T01:34:25;95388.41;;;-0.81;100.00
20077;BME280;12348;42.710;23.378;2023-01-30T01:36:52;95390.88;;;-0.86;100.00
20077;BME280;12348;42.710;23.378;2023-01-30T01:39:19;95390.00;;;-0.73;100.00
20077;BME280;12348;42.710;23.378;2023-01-30T01:41:45;95389.53;;;-0.63;100.00
20077;BME280;12348;42.710;23.378;2023-01-30T01:44:13;95391.59;;;-0.72;100.00
20077;BME280;12348;42.710;23.378;2023-01-30T01:46:44;95398.16;;;-0.75;100.00
20077;BME280;12348;42.710;23.378;2023-01-30T01:49:16;95390.44;;;-0.83;100.00
20077;BME280;12348;42.710;23.378;2023-01-30T01:51:51;95392.53;;;-0.91;100.00
20077;BME280;12348;42.710;23.378;2023-01-30T01:54:23;95391.56;;;-0.97;100.00
20077;BME280;12348;42.710;23.378;2023-01-30T01:56:51;95385.66;;;-0.99;100.00
20077;BME280;12348;42.710;23.378;2023-01-30T01:59:24;95390.13;;;-1.00;100.00
20077;BME280;12348;42.710;23.378;2023-01-30T02:01:55;95390.13;;;-1.00;100.00
20077;BME280;12348;42.710;23.378;2023-01-30T02:04:24;95380.41;;;-1.06;100.00
20077;BME280;12348;42.710;23.378;2023-01-30T02:07:05;95395.03;;;-1.03;100.00
20077;BME280;12348;42.710;23.378;2023-01-30T02:09:33;95392.56;;;-0.98;100.00
20077;BME280;12348;42.710;23.378;2023-01-30T02:12:02;95391.59;;;-1.04;100.00
20077;BME280;12348;42.710;23.378;2023-01-30T02:14:32;95391.63;;;-0.79;100.00
20077;BME280;12348;42.710;23.378;2023-01-30T02:17:01;95392.25;;;-0.77;100.00
20077;BME280;12348;42.710;23.378;2023-01-30T02:19:33;95386.41;;;-0.54;100.00
20077;BME280;12348;42.710;23.378;2023-01-30T02:22:17;95386.63;;;-0.55;100.00
20077;BME280;12348;42.710;23.378;2023-01-30T02:28:24;95382.88;;;-0.73;100.00
20077;BME280;12348;42.710;23.378;2023-01-30T02:31:08;95389.59;;;-0.77;100.00
20077;BME280;12348;42.710;23.378;2023-01-30T02:33:45;95387.75;;;-0.76;100.00
20077;BME280;12348;42.710;23.378;2023-01-30T02:36:20;95381.94;;;-0.85;100.00
20077;BME280;12348;42.710;23.378;2023-01-30T02:38:56;95381.13;;;-0.85;100.00
20077;BME280;12348;42.710;23.378;2023-01-30T02:41:34;95374.59;;;-0.83;100.00
20077;BME280;12348;42.710;23.378;2023-01-30T02:44:04;95371.78;;;-0.88;100.00
20077;BME280;12348;42.710;23.378;2023-01-30T02:46:39;95368.91;;;-0.86;100.00
20077;BME280;12348;42.710;23.378;2023-01-30T02:49:13;95367.53;;;-0.89;100.00
20077;BME280;12348;42.710;23.378;2023-01-30T02:51:42;95370.34;;;-0.90;100.00
20077;BME280;12348;42.710;23.378;2023-01-30T02:54:11;95369.13;;;-0.88;100.00
20077;BME280;12348;42.710;23.378;2023-01-30T02:56:47;95372.81;;;-0.89;100.00
20077;BME280;12348;42.710;23.378;2023-01-30T02:59:20;95373.34;;;-0.80;100.00
20077;BME280;12348;42.710;23.378;2023-01-30T03:02:11;95368.47;;;-0.77;100.00
20077;BME280;12348;42.710;23.378;2023-01-30T03:04:51;95372.13;;;-0.78;100.00
20077;BME280;12348;42.710;23.378;2023-01-30T03:07:28;95379.03;;;-0.77;100.00
20077;BME280;12348;42.710;23.378;2023-01-30T03:10:02;95356.09;;;-0.83;100.00
20077;BME280;12348;42.710;23.378;2023-01-30T03:12:41;95367.69;;;-0.84;100.00
20077;BME280;12348;42.710;23.378;2023-01-30T03:15:12;95357.09;;;-0.84;100.00
20077;BME280;12348;42.710;23.378;2023-01-30T03:17:45;95358.94;;;-0.84;100.00
20077;BME280;12348;42.710;23.378;2023-01-30T03:20:15;95355.94;;;-0.94;100.00
20077;BME280;12348;42.710;23.378;2023-01-30T03:22:44;95348.25;;;-0.96;100.00
20077;BME280;12348;42.710;23.378;2023-01-30T03:25:18;95349.84;;;-0.95;100.00
20077;BME280;12348;42.710;23.378;2023-01-30T03:27:47;95342.19;;;-0.71;100.00
20077;BME280;12348;42.710;23.378;2023-01-30T03:30:16;95336.09;;;-0.72;100.00
20077;BME280;12348;42.710;23.378;2023-01-30T03:32:45;95330.66;;;-0.77;100.00
20077;BME280;12348;42.710;23.378;2023-01-30T03:35:12;95338.03;;;-0.86;100.00
20077;BME280;12348;42.710;23.378;2023-01-30T03:37:41;95327.88;;;-0.89;100.00
20077;BME280;12348;42.710;23.378;2023-01-30T03:40:11;95331.13;;;-0.93;100.00
20077;BME280;12348;42.710;23.378;2023-01-30T03:42:39;95330.78;;;-0.97;100.00
20077;BME280;12348;42.710;23.378;2023-01-30T03:45:07;95331.34;;;-0.95;100.00
20077;BME280;12348;42.710;23.378;2023-01-30T03:47:34;95329.94;;;-0.98;100.00
20077;BME280;12348;42.710;23.378;2023-01-30T03:50:03;95329.13;;;-0.98;100.00
20077;BME280;12348;42.710;23.378;2023-01-30T03:52:30;95324.72;;;-1.04;100.00
20077;BME280;12348;42.710;23.378;2023-01-30T03:54:59;95322.84;;;-0.97;100.00
20077;BME280;12348;42.710;23.378;2023-01-30T03:57:26;95332.34;;;-0.89;100.00
20077;BME280;12348;42.710;23.378;2023-01-30T03:59:53;95324.03;;;-0.93;100.00
20077;BME280;12348;42.710;23.378;2023-01-30T04:02:19;95328.50;;;-0.93;100.00
20077;BME280;12348;42.710;23.378;2023-01-30T04:04:47;95318.16;;;-0.95;100.00
20077;BME280;12348;42.710;23.378;2023-01-30T04:07:17;95318.97;;;-1.01;100.00
20077;BME280;12348;42.710;23.378;2023-01-30T04:09:44;95318.41;;;-1.03;100.00
20077;BME280;12348;42.710;23.378;2023-01-30T04:12:11;95309.06;;;-1.06;100.00
20077;BME280;12348;42.710;23.378;2023-01-30T04:14:38;95324.72;;;-1.04;100.00
20077;BME280;12348;42.710;23.378;2023-01-30T04:17:05;95321.31;;;-1.11;100.00
20077;BME280;12348;42.710;23.378;2023-01-30T04:19:32;95319.03;;;-1.08;100.00
20077;BME280;12348;42.710;23.378;2023-01-30T04:21:59;95315.16;;;-1.05;100.00
20077;BME280;12348;42.710;23.378;2023-01-30T04:24:27;95320.66;;;-1.07;100.00
20077;BME280;12348;42.710;23.378;2023-01-30T04:26:54;95323.88;;;-1.05;100.00
20077;BME280;12348;42.710;23.378;2023-01-30T04:29:20;95323.31;;;-1.07;100.00
20077;BME280;12348;42.710;23.378;2023-01-30T04:31:47;95310.66;;;-1.05;100.00
20077;BME280;12348;42.710;23.378;2023-01-30T04:34:14;95314.94;;;-0.97;100.00
20077;BME280;12348;42.710;23.378;2023-01-30T04:36:40;95315.50;;;-0.95;100.00
20077;BME280;12348;42.710;23.378;2023-01-30T04:39:07;95322.41;;;-0.94;100.00
20077;BME280;12348;42.710;23.378;2023-01-30T04:41:35;95315.16;;;-1.05;100.00
20077;BME280;12348;42.710;23.378;2023-01-30T04:44:02;95322.06;;;-1.04;100.00
20077;BME280;12348;42.710;23.378;2023-01-30T04:46:29;95312.72;;;-1.07;100.00
20077;BME280;12348;42.710;23.378;2023-01-30T04:48:56;95303.38;;;-1.09;100.00
20077;BME280;12348;42.710;23.378;2023-01-30T04:51:23;95314.19;;;-1.11;100.00
20077;BME280;12348;42.710;23.378;2023-01-30T04:53:49;95302.81;;;-1.11;100.00
20077;BME280;12348;42.710;23.378;2023-01-30T04:56:16;95296.75;;;-1.18;100.00
20077;BME280;12348;42.710;23.378;2023-01-30T04:58:45;95293.50;;;-1.20;100.00
20077;BME280;12348;42.710;23.378;2023-01-30T05:01:13;95296.78;;;-1.25;100.00
20077;BME280;12348;42.710;23.378;2023-01-30T05:03:40;95299.59;;;-1.20;100.00
20077;BME280;12348;42.710;23.378;2023-01-30T05:06:07;95298.19;;;-1.23;100.00
20077;BME280;12348;42.710;23.378;2023-01-30T05:08:34;95299.81;;;-1.22;100.00
20077;BME280;12348;42.710;23.378;2023-01-30T05:11:01;95291.25;;;-1.17;100.00
20077;BME280;12348;42.710;23.378;2023-01-30T05:13:27;95292.25;;;-1.11;100.00
20077;BME280;12348;42.710;23.378;2023-01-30T05:15:55;95299.56;;;-1.13;100.00
20077;BME280;12348;42.710;23.378;2023-01-30T05:18:22;95302.41;;;-1.15;100.00
20077;BME280;12348;42.710;23.378;2023-01-30T05:20:49;95306.69;;;-1.14;100.00
20077;BME280;12348;42.710;23.378;2023-01-30T05:23:16;95306.03;;;-1.09;100.00
20077;BME280;12348;42.710;23.378;2023-01-30T05:25:43;95305.66;;;-1.13;100.00
20077;BME280;12348;42.710;23.378;2023-01-30T05:28:10;95304.88;;;-1.20;100.00
20077;BME280;12348;42.710;23.378;2023-01-30T05:30:37;95310.41;;;-1.28;100.00
20077;BME280;12348;42.710;23.378;2023-01-30T05:33:05;95308.38;;;-1.26;100.00
20077;BME280;12348;42.710;23.378;2023-01-30T05:35:32;95300.03;;;-1.23;100.00
20077;BME280;12348;42.710;23.378;2023-01-30T05:37:58;95313.03;;;-1.22;100.00
20077;BME280;12348;42.710;23.378;2023-01-30T05:40:26;95311.56;;;-1.17;100.00
20077;BME280;12348;42.710;23.378;2023-01-30T05:42:53;95310.53;;;-1.16;100.00
20077;BME280;12348;42.710;23.378;2023-01-30T05:45:20;95311.56;;;-1.17;100.00
20077;BME280;12348;42.710;23.378;2023-01-30T05:47:49;95315.22;;;-1.12;100.00
20077;BME280;12348;42.710;23.378;2023-01-30T05:50:18;95311.81;;;-1.26;100.00
20077;BME280;12348;42.710;23.378;2023-01-30T05:52:45;95314.03;;;-1.23;100.00
20077;BME280;12348;42.710;23.378;2023-01-30T05:55:12;95324.38;;;-1.21;100.00
20077;BME280;12348;42.710;23.378;2023-01-30T05:57:39;95327.25;;;-1.23;100.00
20077;BME280;12348;42.710;23.378;2023-01-30T06:00:07;95307.72;;;-1.22;100.00
20077;BME280;12348;42.710;23.378;2023-01-30T06:02:34;95315.50;;;-1.27;100.00
20077;BME280;12348;42.710;23.378;2023-01-30T06:05:01;95316.50;;;-1.28;100.00
20077;BME280;12348;42.710;23.378;2023-01-30T06:07:29;95322.22;;;-1.31;100.00
20077;BME280;12348;42.710;23.378;2023-01-30T06:09:57;95317.94;;;-1.32;100.00
20077;BME280;12348;42.710;23.378;2023-01-30T06:12:23;95328.72;;;-1.33;100.00
20077;BME280;12348;42.710;23.378;2023-01-30T06:14:50;95315.13;;;-1.37;100.00
20077;BME280;12348;42.710;23.378;2023-01-30T06:17:17;95318.97;;;-1.33;100.00
20077;BME280;12348;42.710;23.378;2023-01-30T06:19:44;95324.25;;;-1.33;100.00
20077;BME280;12348;42.710;23.378;2023-01-30T06:22:11;95314.88;;;-1.29;100.00
20077;BME280;12348;42.710;23.378;2023-01-30T06:24:39;95302.03;;;-0.12;100.00
20077;BME280;12348;42.710;23.378;2023-01-30T06:27:06;95315.16;;;-0.74;100.00
20077;BME280;12348;42.710;23.378;2023-01-30T06:29:33;95303.47;;;-0.91;100.00
20077;BME280;12348;42.710;23.378;2023-01-30T06:32:00;95310.63;;;-0.98;100.00
20077;BME280;12348;42.710;23.378;2023-01-30T06:34:27;95306.41;;;-1.06;100.00
20077;BME280;12348;42.710;23.378;2023-01-30T06:36:54;95302.84;;;-1.18;100.00
20077;BME280;12348;42.710;23.378;2023-01-30T06:39:21;95301.41;;;-1.20;100.00
20077;BME280;12348;42.710;23.378;2023-01-30T06:41:49;95308.75;;;-1.23;100.00
20077;BME280;12348;42.710;23.378;2023-01-30T06:44:16;95307.97;;;-1.23;100.00
20077;BME280;12348;42.710;23.378;2023-01-30T06:46:46;95312.41;;;-1.24;100.00
20077;BME280;12348;42.710;23.378;2023-01-30T06:49:12;95319.53;;;-1.24;100.00
20077;BME280;12348;42.710;23.378;2023-01-30T06:51:39;95306.50;;;-1.19;100.00
20077;BME280;12348;42.710;23.378;2023-01-30T06:54:06;95313.41;;;-1.18;100.00
20077;BME280;12348;42.710;23.378;2023-01-30T06:56:32;95321.09;;;-1.16;100.00
20077;BME280;12348;42.710;23.378;2023-01-30T06:59:01;95321.09;;;-1.16;100.00
20077;BME280;12348;42.710;23.378;2023-01-30T07:01:27;95324.34;;;-1.14;100.00
20077;BME280;12348;42.710;23.378;2023-01-30T07:03:54;95319.47;;;-1.11;100.00
20077;BME280;12348;42.710;23.378;2023-01-30T07:06:21;95328.16;;;-1.04;100.00
20077;BME280;12348;42.710;23.378;2023-01-30T07:08:48;95326.44;;;-0.85;100.00
20077;BME280;12348;42.710;23.378;2023-01-30T07:11:15;95326.91;;;-1.01;100.00
20077;BME280;12348;42.710;23.378;2023-01-30T07:13:41;95330.59;;;-1.02;100.00
20077;BME280;12348;42.710;23.378;2023-01-30T07:16:09;95328.97;;;-1.03;100.00
20077;BME280;12348;42.710;23.378;2023-01-30T07:18:36;95327.97;;;-1.09;100.00
20077;BME280;12348;42.710;23.378;2023-01-30T07:21:03;95330.00;;;-1.04;100.00
20077;BME280;12348;42.710;23.378;2023-01-30T07:23:30;95327.94;;;-1.02;100.00
20077;BME280;12348;42.710;23.378;2023-01-30T07:25:57;95328.81;;;-1.08;100.00
20077;BME280;12348;42.710;23.378;2023-01-30T07:28:24;95332.41;;;-1.03;100.00
20077;BME280;12348;42.710;23.378;2023-01-30T07:30:50;95329.56;;;-1.01;100.00
20077;BME280;12348;42.710;23.378;2023-01-30T07:33:19;95336.06;;;-0.97;100.00
20077;BME280;12348;42.710;23.378;2023-01-30T07:35:46;95347.88;;;-1.06;100.00
20077;BME280;12348;42.710;23.378;2023-01-30T07:38:14;95348.66;;;-0.99;100.00
20077;BME280;12348;42.710;23.378;2023-01-30T07:40:40;95354.50;;;-0.90;100.00
20077;BME280;12348;42.710;23.378;2023-01-30T07:43:09;95350.63;;;-0.88;100.00
20077;BME280;12348;42.710;23.378;2023-01-30T07:45:38;95343.31;;;-0.86;100.00
20077;BME280;12348;42.710;23.378;2023-01-30T07:48:05;95341.03;;;-0.82;100.00
20077;BME280;12348;42.710;23.378;2023-01-30T07:50:34;95336.34;;;-0.80;100.00
20077;BME280;12348;42.710;23.378;2023-01-30T07:53:02;95335.97;;;-0.84;100.00
20077;BME280;12348;42.710;23.378;2023-01-30T07:55:29;95331.09;;;-0.87;100.00
20077;BME280;12348;42.710;23.378;2023-01-30T07:57:55;95326.19;;;-0.83;100.00
20077;BME280;12348;42.710;23.378;2023-01-30T08:00:23;95327.81;;;-0.82;100.00
20077;BME280;12348;42.710;23.378;2023-01-30T08:02:49;95321.09;;;-0.78;100.00
20077;BME280;12348;42.710;23.378;2023-01-30T08:05:16;95309.06;;;-0.74;100.00
20077;BME280;12348;42.710;23.378;2023-01-30T08:07:44;95307.25;;;-0.74;100.00
20077;BME280;12348;42.710;23.378;2023-01-30T08:10:13;95314.66;;;-0.64;100.00
20077;BME280;12348;42.710;23.378;2023-01-30T08:12:41;95310.06;;;-0.43;100.00
20077;BME280;12348;42.710;23.378;2023-01-30T08:15:08;95313.13;;;-0.46;100.00
20077;BME280;12348;42.710;23.378;2023-01-30T08:17:36;95312.75;;;-0.50;100.00
20077;BME280;12348;42.710;23.378;2023-01-30T08:20:03;95301.50;;;-0.45;100.00
20077;BME280;12348;42.710;23.378;2023-01-30T08:22:30;95306.00;;;-0.46;100.00
20077;BME280;12348;42.710;23.378;2023-01-30T08:24:58;95307.59;;;-0.45;100.00
20077;BME280;12348;42.710;23.378;2023-01-30T08:27:25;95308.06;;;-0.48;100.00
20077;BME280;12348;42.710;23.378;2023-01-30T08:29:52;95306.38;;;-0.42;100.00
20077;BME280;12348;42.710;23.378;2023-01-30T08:32:19;95303.34;;;-0.46;100.00
20077;BME280;12348;42.710;23.378;2023-01-30T08:34:46;95303.03;;;-0.56;100.00
20077;BME280;12348;42.710;23.378;2023-01-30T08:37:12;95293.66;;;-0.52;100.00
20077;BME280;12348;42.710;23.378;2023-01-30T08:39:39;95284.88;;;-0.53;100.00
20077;BME280;12348;42.710;23.378;2023-01-30T08:42:07;95291.09;;;-0.65;100.00
20077;BME280;12348;42.710;23.378;2023-01-30T08:44:34;95286.56;;;-0.58;100.00
20077;BME280;12348;42.710;23.378;2023-01-30T08:47:01;95290.31;;;-0.41;100.00
20077;BME280;12348;42.710;23.378;2023-01-30T08:49:28;95284.19;;;-0.41;100.00
20077;BME280;12348;42.710;23.378;2023-01-30T08:51:54;95280.31;;;-0.39;100.00
20077;BME280;12348;42.710;23.378;2023-01-30T08:54:21;95277.66;;;-0.39;100.00
20077;BME280;12348;42.710;23.378;2023-01-30T08:56:48;95278.69;;;-0.40;100.00
20077;BME280;12348;42.710;23.378;2023-01-30T08:59:16;95274.44;;;-0.22;100.00
20077;BME280;12348;42.710;23.378;2023-01-30T09:01:43;95270.72;;;-0.15;100.00
20077;BME280;12348;42.710;23.378;2023-01-30T09:04:10;95275.06;;;-0.02;100.00
20077;BME280;12348;42.710;23.378;2023-01-30T09:06:37;95276.25;;;0.02;100.00
20077;BME280;12348;42.710;23.378;2023-01-30T09:09:03;95263.97;;;0.08;100.00
20077;BME280;12348;42.710;23.378;2023-01-30T09:11:30;95263.97;;;0.08;100.00
20077;BME280;12348;42.710;23.378;2023-01-30T09:13:57;95268.75;;;0.17;100.00
20077;BME280;12348;42.710;23.378;2023-01-30T09:16:25;95261.53;;;0.24;100.00
20077;BME280;12348;42.710;23.378;2023-01-30T09:18:52;95259.84;;;0.30;100.00
20077;BME280;12348;42.710;23.378;2023-01-30T09:21:19;95263.81;;;0.39;100.00
20077;BME280;12348;42.710;23.378;2023-01-30T09:23:46;95250.72;;;0.26;100.00
20077;BME280;12348;42.710;23.378;2023-01-30T09:26:13;95256.53;;;0.35;100.00
20077;BME280;12348;42.710;23.378;2023-01-30T09:28:39;95255.38;;;0.31;100.00
20077;BME280;12348;42.710;23.378;2023-01-30T09:31:06;95254.47;;;0.18;100.00
20077;BME280;12348;42.710;23.378;2023-01-30T09:33:34;95262.06;;;-0.04;100.00
20077;BME280;12348;42.710;23.378;2023-01-30T09:36:01;95251.38;;;0.03;100.00
20077;BME280;12348;42.710;23.378;2023-01-30T09:38:28;95255.44;;;0.06;100.00
20077;BME280;12348;42.710;23.378;2023-01-30T09:41:05;95258.97;;;-0.01;100.00
20077;BME280;12348;42.710;23.378;2023-01-30T09:43:46;95244.56;;;0.14;100.00
20077;BME280;12348;42.710;23.378;2023-01-30T09:46:29;95249.41;;;0.17;100.00
20077;BME280;12348;42.710;23.378;2023-01-30T09:49:08;95244.13;;;0.17;100.00
20077;BME280;12348;42.710;23.378;2023-01-30T09:51:52;95241.53;;;0.29;100.00
20077;BME280;12348;42.710;23.378;2023-01-30T09:54:28;95248.78;;;0.52;100.00
20077;BME280;12348;42.710;23.378;2023-01-30T09:57:08;95241.38;;;0.42;100.00
20077;BME280;12348;42.710;23.378;2023-01-30T09:59:44;95238.88;;;0.29;100.00
20077;BME280;12348;42.710;23.378;2023-01-30T10:02:39;95231.53;;;0.31;100.00
20077;BME280;12348;42.710;23.378;2023-01-30T10:05:08;95219.03;;;0.19;100.00
20077;BME280;12348;42.710;23.378;2023-01-30T10:07:44;95216.34;;;0.08;100.00
20077;BME280;12348;42.710;23.378;2023-01-30T10:10:20;95219.13;;;0.13;100.00
20077;BME280;12348;42.710;23.378;2023-01-30T10:13:03;95208.22;;;0.03;100.00
20077;BME280;12348;42.710;23.378;2023-01-30T10:15:38;95200.53;;;0.01;100.00
20077;BME280;12348;42.710;23.378;2023-01-30T10:18:30;95197.22;;;0.06;100.00
20077;BME280;12348;42.710;23.378;2023-01-30T10:21:10;95194.47;;;0.31;100.00
20077;BME280;12348;42.710;23.378;2023-01-30T10:23:50;95180.78;;;0.34;100.00
20077;BME280;12348;42.710;23.378;2023-01-30T10:26:22;95178.16;;;0.15;100.00
20077;BME280;12348;42.710;23.378;2023-01-30T10:28:55;95179.53;;;0.18;100.00
20077;BME280;12348;42.710;23.378;2023-01-30T10:31:27;95176.88;;;0.18;100.00
20077;BME280;12348;42.710;23.378;2023-01-30T10:33:57;95174.03;;;0.19;100.00
20077;BME280;12348;42.710;23.378;2023-01-30T10:36:31;95166.09;;;0.19;100.00
20077;BME280;12348;42.710;23.378;2023-01-30T10:39:03;95154.38;;;0.27;100.00
20077;BME280;12348;42.710;23.378;2023-01-30T10:41:49;95158.31;;;0.36;100.00
20077;BME280;12348;42.710;23.378;2023-01-30T10:44:20;95153.97;;;0.42;100.00
20077;BME280;12348;42.710;23.378;2023-01-30T10:47:01;95142.09;;;0.44;100.00
20077;BME280;12348;42.710;23.378;2023-01-30T10:49:38;95141.59;;;0.24;100.00
20077;BME280;12348;42.710;23.378;2023-01-30T10:52:16;95138.53;;;0.09;100.00
20077;BME280;12348;42.710;23.378;2023-01-30T10:54:56;95126.38;;;0.19;100.00
20077;BME280;12348;42.710;23.378;2023-01-30T10:57:35;95124.25;;;0.40;100.00
20077;BME280;12348;42.710;23.378;2023-01-30T11:00:09;95119.66;;;0.47;100.00
20077;BME280;12348;42.710;23.378;2023-01-30T11:02:58;95113.66;;;0.40;100.00
20077;BME280;12348;42.710;23.378;2023-01-30T11:05:34;95101.19;;;0.29;100.00
20077;BME280;12348;42.710;23.378;2023-01-30T11:08:14;95102.22;;;0.28;100.00
20077;BME280;12348;42.710;23.378;2023-01-30T11:10:44;95098.81;;;0.39;100.00
20077;BME280;12348;42.710;23.378;2023-01-30T11:13:15;95087.94;;;0.29;100.00
20077;BME280;12348;42.710;23.378;2023-01-30T11:15:44;95085.78;;;0.37;100.00
20077;BME280;12348;42.710;23.378;2023-01-30T11:18:12;95077.53;;;0.57;100.00
20077;BME280;12348;42.710;23.378;2023-01-30T11:20:41;95073.66;;;0.71;100.00
20077;BME280;12348;42.710;23.378;2023-01-30T11:23:23;95073.66;;;0.71;100.00
20077;BME280;12348;42.710;23.378;2023-01-30T11:25:52;95066.25;;;0.73;100.00
20077;BME280;12348;42.710;23.378;2023-01-30T11:28:19;95056.72;;;0.61;100.00
20077;BME280;12348;42.710;23.378;2023-01-30T11:30:51;95045.53;;;0.70;100.00
20077;BME280;12348;42.710;23.378;2023-01-30T11:33:19;95046.56;;;0.81;100.00
20077;BME280;12348;42.710;23.378;2023-01-30T11:35:52;95046.13;;;0.84;100.00
20077;BME280;12348;42.710;23.378;2023-01-30T11:38:23;95035.84;;;0.88;100.00
20077;BME280;12348;42.710;23.378;2023-01-30T11:41:01;95032.03;;;1.07;100.00
20077;BME280;12348;42.710;23.378;2023-01-30T11:43:29;95019.22;;;1.04;100.00
20077;BME280;12348;42.710;23.378;2023-01-30T11:45:56;95014.22;;;0.67;100.00
20077;BME280;12348;42.710;23.378;2023-01-30T11:48:26;95022.97;;;0.56;100.00
20077;BME280;12348;42.710;23.378;2023-01-30T11:50:57;94999.22;;;0.61;100.00
20077;BME280;12348;42.710;23.378;2023-01-30T11:53:31;95006.81;;;0.46;100.00
20077;BME280;12348;42.710;23.378;2023-01-30T11:56:03;95008.75;;;0.27;100.00
20077;BME280;12348;42.710;23.378;2023-01-30T11:58:33;94998.06;;;0.57;100.00
20077;BME280;12348;42.710;23.378;2023-01-30T12:01:01;94981.38;;;0.57;100.00
20077;BME280;12348;42.710;23.378;2023-01-30T12:03:30;94982.88;;;0.64;100.00
20077;BME280;12348;42.710;23.378;2023-01-30T12:05:58;94980.31;;;0.69;100.00
20077;BME280;12348;42.710;23.378;2023-01-30T12:08:27;94976.75;;;0.87;100.00
20077;BME280;12348;42.710;23.378;2023-01-30T12:10:59;94971.66;;;0.86;100.00
20077;BME280;12348;42.710;23.378;2023-01-30T12:13:31;94971.09;;;0.84;100.00
20077;BME280;12348;42.710;23.378;2023-01-30T12:16:21;94963.88;;;0.67;100.00
20077;BME280;12348;42.710;23.378;2023-01-30T12:18:58;94966.88;;;0.71;100.00
20077;BME280;12348;42.710;23.378;2023-01-30T12:21:35;94960.06;;;0.63;100.00
20077;BME280;12348;42.710;23.378;2023-01-30T12:24:12;94960.75;;;0.59;100.00
20077;BME280;12348;42.710;23.378;2023-01-30T12:26:46;94952.00;;;0.46;100.00
20077;BME280;12348;42.710;23.378;2023-01-30T12:29:22;94945.44;;;0.61;100.00
20077;BME280;12348;42.710;23.378;2023-01-30T12:31:59;94937.72;;;0.71;100.00
20077;BME280;12348;42.710;23.378;2023-01-30T12:34:27;94937.13;;;0.69;100.00
20077;BME280;12348;42.710;23.378;2023-01-30T12:37:04;94943.94;;;0.65;100.00
20077;BME280;12348;42.710;23.378;2023-01-30T12:39:41;94938.97;;;0.68;100.00
20077;BME280;12348;42.710;23.378;2023-01-30T12:42:27;94926.28;;;0.94;100.00
20077;BME280;12348;42.710;23.378;2023-01-30T12:45:18;94921.28;;;1.09;100.00
20077;BME280;12348;42.710;23.378;2023-01-30T12:50:52;94924.59;;;1.16;100.00
20077;BME280;12348;42.710;23.378;2023-01-30T12:53:30;94912.28;;;1.10;100.00
20077;BME280;12348;42.710;23.378;2023-01-30T12:56:24;94906.50;;;1.13;100.00
20077;BME280;12348;42.710;23.378;2023-01-30T12:58:58;94904.22;;;1.05;100.00
20077;BME280;12348;42.710;23.378;2023-01-30T13:01:33;94910.03;;;1.19;100.00
20077;BME280;12348;42.710;23.378;2023-01-30T13:04:12;94911.69;;;1.20;100.00